sensor_id;sensor_type;location;lat;lon;timestamp;P1;durP1;ratioP1;P2;durP2;ratioP2
19735;SDS011;32064;49.310;8.646;2022-08-25T00:01:35;1.63;;;1.45;;
19735;SDS011;32064;49.310;8.646;2022-08-25T00:04:08;1.60;;;1.45;;
19735;SDS011;32064;49.310;8.646;2022-08-25T00:06:36;1.58;;;1.48;;
19735;SDS011;32064;49.310;8.646;2022-08-25T00:09:03;1.75;;;1.58;;
19735;SDS011;32064;49.310;8.646;2022-08-25T00:11:31;1.73;;;1.50;;
19735;SDS011;32064;49.310;8.646;2022-08-25T00:13:59;2.78;;;1.50;;
19735;SDS011;32064;49.310;8.646;2022-08-25T00:16:28;1.73;;;1.52;;
19735;SDS011;32064;49.310;8.646;2022-08-25T00:18:59;3.55;;;1.40;;
19735;SDS011;32064;49.310;8.646;2022-08-25T00:21:27;1.50;;;1.38;;
19735;SDS011;32064;49.310;8.646;2022-08-25T00:23:55;2.58;;;1.73;;
19735;SDS011;32064;49.310;8.646;2022-08-25T00:26:20;3.95;;;1.60;;
19735;SDS011;32064;49.310;8.646;2022-08-25T00:28:46;1.63;;;1.52;;
19735;SDS011;32064;49.310;8.646;2022-08-25T00:31:15;2.00;;;1.60;;
19735;SDS011;32064;49.310;8.646;2022-08-25T00:33:44;1.90;;;1.40;;
19735;SDS011;32064;49.310;8.646;2022-08-25T00:36:11;1.95;;;1.50;;
19735;SDS011;32064;49.310;8.646;2022-08-25T00:38:38;1.70;;;1.50;;
19735;SDS011;32064;49.310;8.646;2022-08-25T00:41:05;2.83;;;1.65;;
19735;SDS011;32064;49.310;8.646;2022-08-25T00:46:09;1.95;;;1.58;;
19735;SDS011;32064;49.310;8.646;2022-08-25T00:48:35;1.77;;;1.67;;
19735;SDS011;32064;49.310;8.646;2022-08-25T00:51:04;2.53;;;1.70;;
19735;SDS011;32064;49.310;8.646;2022-08-25T00:53:31;1.92;;;1.70;;
19735;SDS011;32064;49.310;8.646;2022-08-25T00:55:57;1.60;;;1.48;;
19735;SDS011;32064;49.310;8.646;2022-08-25T00:58:24;5.43;;;2.22;;
19735;SDS011;32064;49.310;8.646;2022-08-25T01:00:53;2.20;;;1.95;;
19735;SDS011;32064;49.310;8.646;2022-08-25T01:03:22;2.85;;;1.90;;
19735;SDS011;32064;49.310;8.646;2022-08-25T01:05:49;2.22;;;1.95;;
19735;SDS011;32064;49.310;8.646;2022-08-25T01:08:16;2.08;;;1.88;;
19735;SDS011;32064;49.310;8.646;2022-08-25T01:10:45;3.72;;;2.10;;
19735;SDS011;32064;49.310;8.646;2022-08-25T01:13:19;2.25;;;1.70;;
19735;SDS011;32064;49.310;8.646;2022-08-25T01:15:55;2.80;;;1.85;;
19735;SDS011;32064;49.310;8.646;2022-08-25T01:18:21;2.85;;;2.00;;
19735;SDS011;32064;49.310;8.646;2022-08-25T01:20:48;3.40;;;1.65;;
19735;SDS011;32064;49.310;8.646;2022-08-25T01:23:17;1.63;;;1.52;;
19735;SDS011;32064;49.310;8.646;2022-08-25T01:25:48;2.33;;;1.88;;
19735;SDS011;32064;49.310;8.646;2022-08-25T01:28:16;2.28;;;2.00;;
19735;SDS011;32064;49.310;8.646;2022-08-25T01:30:43;2.50;;;1.80;;
19735;SDS011;32064;49.310;8.646;2022-08-25T01:33:09;2.35;;;1.88;;
19735;SDS011;32064;49.310;8.646;2022-08-25T01:35:35;1.83;;;1.50;;
19735;SDS011;32064;49.310;8.646;2022-08-25T01:38:02;2.22;;;1.98;;
19735;SDS011;32064;49.310;8.646;2022-08-25T01:40:29;3.00;;;1.90;;
19735;SDS011;32064;49.310;8.646;2022-08-25T01:43:06;2.80;;;2.22;;
19735;SDS011;32064;49.310;8.646;2022-08-25T01:45:33;2.53;;;2.03;;
19735;SDS011;32064;49.310;8.646;2022-08-25T01:47:59;2.33;;;2.00;;
19735;SDS011;32064;49.310;8.646;2022-08-25T01:50:25;2.13;;;1.92;;
19735;SDS011;32064;49.310;8.646;2022-08-25T01:52:57;2.33;;;2.00;;
19735;SDS011;32064;49.310;8.646;2022-08-25T01:55:42;7.35;;;2.42;;
19735;SDS011;32064;49.310;8.646;2022-08-25T01:58:24;3.78;;;2.10;;
19735;SDS011;32064;49.310;8.646;2022-08-25T02:00:52;4.65;;;2.10;;
19735;SDS011;32064;49.310;8.646;2022-08-25T02:03:21;5.28;;;2.30;;
19735;SDS011;32064;49.310;8.646;2022-08-25T02:05:48;2.70;;;2.22;;
19735;SDS011;32064;49.310;8.646;2022-08-25T02:08:14;4.43;;;2.20;;
19735;SDS011;32064;49.310;8.646;2022-08-25T02:10:39;3.05;;;2.60;;
19735;SDS011;32064;49.310;8.646;2022-08-25T02:13:06;4.43;;;2.20;;
19735;SDS011;32064;49.310;8.646;2022-08-25T02:15:32;2.00;;;1.80;;
19735;SDS011;32064;49.310;8.646;2022-08-25T02:17:58;5.78;;;2.38;;
19735;SDS011;32064;49.310;8.646;2022-08-25T02:20:23;2.15;;;1.90;;
19735;SDS011;32064;49.310;8.646;2022-08-25T02:22:49;3.90;;;1.77;;
19735;SDS011;32064;49.310;8.646;2022-08-25T02:25:15;2.15;;;1.95;;
19735;SDS011;32064;49.310;8.646;2022-08-25T02:27:42;3.38;;;2.10;;
19735;SDS011;32064;49.310;8.646;2022-08-25T02:30:08;3.00;;;1.90;;
19735;SDS011;32064;49.310;8.646;2022-08-25T02:32:34;3.17;;;2.13;;
19735;SDS011;32064;49.310;8.646;2022-08-25T02:34:59;2.67;;;2.17;;
19735;SDS011;32064;49.310;8.646;2022-08-25T02:37:24;3.47;;;2.33;;
19735;SDS011;32064;49.310;8.646;2022-08-25T02:39:50;2.83;;;2.00;;
19735;SDS011;32064;49.310;8.646;2022-08-25T02:42:15;2.60;;;1.80;;
19735;SDS011;32064;49.310;8.646;2022-08-25T02:44:41;2.35;;;1.80;;
19735;SDS011;32064;49.310;8.646;2022-08-25T02:47:06;4.10;;;2.22;;
19735;SDS011;32064;49.310;8.646;2022-08-25T02:49:32;2.78;;;2.42;;
19735;SDS011;32064;49.310;8.646;2022-08-25T02:51:57;3.58;;;2.10;;
19735;SDS011;32064;49.310;8.646;2022-08-25T02:54:24;4.85;;;2.45;;
19735;SDS011;32064;49.310;8.646;2022-08-25T02:56:51;2.53;;;2.28;;
19735;SDS011;32064;49.310;8.646;2022-08-25T02:59:16;4.13;;;2.10;;
19735;SDS011;32064;49.310;8.646;2022-08-25T03:01:45;2.70;;;2.33;;
19735;SDS011;32064;49.310;8.646;2022-08-25T03:04:10;2.67;;;2.38;;
19735;SDS011;32064;49.310;8.646;2022-08-25T03:06:37;2.30;;;2.03;;
19735;SDS011;32064;49.310;8.646;2022-08-25T03:09:03;4.55;;;2.25;;
19735;SDS011;32064;49.310;8.646;2022-08-25T03:11:28;5.35;;;2.20;;
19735;SDS011;32064;49.310;8.646;2022-08-25T03:13:55;5.32;;;2.53;;
19735;SDS011;32064;49.310;8.646;2022-08-25T03:16:21;2.42;;;2.22;;
19735;SDS011;32064;49.310;8.646;2022-08-25T03:18:47;3.08;;;2.30;;
19735;SDS011;32064;49.310;8.646;2022-08-25T03:21:13;7.22;;;2.60;;
19735;SDS011;32064;49.310;8.646;2022-08-25T03:23:39;2.88;;;2.28;;
19735;SDS011;32064;49.310;8.646;2022-08-25T03:26:05;3.63;;;2.30;;
19735;SDS011;32064;49.310;8.646;2022-08-25T03:28:50;3.78;;;2.33;;
19735;SDS011;32064;49.310;8.646;2022-08-25T03:31:16;3.65;;;2.20;;
19735;SDS011;32064;49.310;8.646;2022-08-25T03:33:43;2.85;;;2.25;;
19735;SDS011;32064;49.310;8.646;2022-08-25T03:36:08;3.90;;;2.13;;
19735;SDS011;32064;49.310;8.646;2022-08-25T03:38:38;2.85;;;2.38;;
19735;SDS011;32064;49.310;8.646;2022-08-25T03:41:12;3.35;;;2.38;;
19735;SDS011;32064;49.310;8.646;2022-08-25T03:43:59;2.97;;;2.20;;
19735;SDS011;32064;49.310;8.646;2022-08-25T03:46:31;3.10;;;2.22;;
19735;SDS011;32064;49.310;8.646;2022-08-25T03:49:09;2.65;;;2.05;;
19735;SDS011;32064;49.310;8.646;2022-08-25T03:51:45;3.55;;;2.58;;
19735;SDS011;32064;49.310;8.646;2022-08-25T03:54:12;2.60;;;2.30;;
19735;SDS011;32064;49.310;8.646;2022-08-25T03:56:40;2.83;;;2.40;;
19735;SDS011;32064;49.310;8.646;2022-08-25T03:59:06;3.42;;;2.58;;
19735;SDS011;32064;49.310;8.646;2022-08-25T04:01:38;2.83;;;2.53;;
19735;SDS011;32064;49.310;8.646;2022-08-25T04:04:06;5.75;;;2.75;;
19735;SDS011;32064;49.310;8.646;2022-08-25T04:06:33;3.47;;;2.78;;
19735;SDS011;32064;49.310;8.646;2022-08-25T04:08:58;2.38;;;2.17;;
19735;SDS011;32064;49.310;8.646;2022-08-25T04:11:25;7.88;;;2.60;;
19735;SDS011;32064;49.310;8.646;2022-08-25T04:13:52;2.95;;;2.33;;
19735;SDS011;32064;49.310;8.646;2022-08-25T04:16:23;4.78;;;2.47;;
19735;SDS011;32064;49.310;8.646;2022-08-25T04:18:51;2.60;;;2.40;;
19735;SDS011;32064;49.310;8.646;2022-08-25T04:21:21;3.63;;;2.90;;
19735;SDS011;32064;49.310;8.646;2022-08-25T04:23:47;3.85;;;2.72;;
19735;SDS011;32064;49.310;8.646;2022-08-25T04:26:18;3.17;;;2.47;;
19735;SDS011;32064;49.310;8.646;2022-08-25T04:28:51;2.95;;;2.63;;
19735;SDS011;32064;49.310;8.646;2022-08-25T04:31:17;4.13;;;2.42;;
19735;SDS011;32064;49.310;8.646;2022-08-25T04:33:44;3.63;;;2.47;;
19735;SDS011;32064;49.310;8.646;2022-08-25T04:36:12;3.60;;;2.45;;
19735;SDS011;32064;49.310;8.646;2022-08-25T04:38:40;8.13;;;3.30;;
19735;SDS011;32064;49.310;8.646;2022-08-25T04:41:06;3.88;;;2.33;;
19735;SDS011;32064;49.310;8.646;2022-08-25T04:43:34;3.55;;;2.55;;
19735;SDS011;32064;49.310;8.646;2022-08-25T04:46:04;3.50;;;2.50;;
19735;SDS011;32064;49.310;8.646;2022-08-25T04:48:35;4.25;;;2.72;;
19735;SDS011;32064;49.310;8.646;2022-08-25T04:51:08;2.95;;;2.65;;
19735;SDS011;32064;49.310;8.646;2022-08-25T04:53:36;4.03;;;2.65;;
19735;SDS011;32064;49.310;8.646;2022-08-25T04:56:04;3.50;;;2.55;;
19735;SDS011;32064;49.310;8.646;2022-08-25T04:58:31;6.65;;;2.60;;
19735;SDS011;32064;49.310;8.646;2022-08-25T05:01:01;3.15;;;2.70;;
19735;SDS011;32064;49.310;8.646;2022-08-25T05:03:31;4.00;;;2.40;;
19735;SDS011;32064;49.310;8.646;2022-08-25T05:05:57;4.13;;;2.85;;
19735;SDS011;32064;49.310;8.646;2022-08-25T05:08:22;5.03;;;2.35;;
19735;SDS011;32064;49.310;8.646;2022-08-25T05:10:48;2.90;;;2.60;;
19735;SDS011;32064;49.310;8.646;2022-08-25T05:13:14;3.67;;;2.65;;
19735;SDS011;32064;49.310;8.646;2022-08-25T05:15:40;6.15;;;2.47;;
19735;SDS011;32064;49.310;8.646;2022-08-25T05:18:14;3.38;;;2.83;;
19735;SDS011;32064;49.310;8.646;2022-08-25T05:20:43;3.88;;;2.80;;
19735;SDS011;32064;49.310;8.646;2022-08-25T05:23:09;5.72;;;2.88;;
19735;SDS011;32064;49.310;8.646;2022-08-25T05:25:35;4.78;;;2.50;;
19735;SDS011;32064;49.310;8.646;2022-08-25T05:28:00;5.13;;;2.95;;
19735;SDS011;32064;49.310;8.646;2022-08-25T05:30:26;3.83;;;2.78;;
19735;SDS011;32064;49.310;8.646;2022-08-25T05:32:51;2.92;;;2.50;;
19735;SDS011;32064;49.310;8.646;2022-08-25T05:35:17;5.68;;;2.83;;
19735;SDS011;32064;49.310;8.646;2022-08-25T05:37:44;5.47;;;2.78;;
19735;SDS011;32064;49.310;8.646;2022-08-25T05:40:10;2.78;;;2.58;;
19735;SDS011;32064;49.310;8.646;2022-08-25T05:42:35;5.90;;;2.72;;
19735;SDS011;32064;49.310;8.646;2022-08-25T05:45:01;3.45;;;2.65;;
19735;SDS011;32064;49.310;8.646;2022-08-25T05:47:28;3.08;;;2.40;;
19735;SDS011;32064;49.310;8.646;2022-08-25T05:49:53;3.72;;;2.85;;
19735;SDS011;32064;49.310;8.646;2022-08-25T05:52:18;3.60;;;2.72;;
19735;SDS011;32064;49.310;8.646;2022-08-25T05:54:44;2.65;;;2.45;;
19735;SDS011;32064;49.310;8.646;2022-08-25T05:57:09;6.55;;;2.70;;
19735;SDS011;32064;49.310;8.646;2022-08-25T05:59:35;2.60;;;2.40;;
19735;SDS011;32064;49.310;8.646;2022-08-25T06:02:01;3.53;;;2.60;;
19735;SDS011;32064;49.310;8.646;2022-08-25T06:04:45;2.90;;;2.67;;
19735;SDS011;32064;49.310;8.646;2022-08-25T06:07:10;4.25;;;2.90;;
19735;SDS011;32064;49.310;8.646;2022-08-25T06:09:36;4.20;;;3.08;;
19735;SDS011;32064;49.310;8.646;2022-08-25T06:12:06;3.03;;;2.47;;
19735;SDS011;32064;49.310;8.646;2022-08-25T06:14:34;4.28;;;3.20;;
19735;SDS011;32064;49.310;8.646;2022-08-25T06:17:00;4.20;;;3.15;;
19735;SDS011;32064;49.310;8.646;2022-08-25T06:19:25;5.57;;;2.67;;
19735;SDS011;32064;49.310;8.646;2022-08-25T06:21:55;3.50;;;2.67;;
19735;SDS011;32064;49.310;8.646;2022-08-25T06:24:26;3.15;;;2.85;;
19735;SDS011;32064;49.310;8.646;2022-08-25T06:26:52;8.35;;;2.97;;
19735;SDS011;32064;49.310;8.646;2022-08-25T06:29:19;3.63;;;2.83;;
19735;SDS011;32064;49.310;8.646;2022-08-25T06:31:45;5.63;;;3.15;;
19735;SDS011;32064;49.310;8.646;2022-08-25T06:34:11;2.83;;;2.28;;
19735;SDS011;32064;49.310;8.646;2022-08-25T06:36:39;4.25;;;2.60;;
19735;SDS011;32064;49.310;8.646;2022-08-25T06:39:05;5.63;;;2.10;;
19735;SDS011;32064;49.310;8.646;2022-08-25T06:41:31;3.70;;;2.42;;
19735;SDS011;32064;49.310;8.646;2022-08-25T06:43:57;3.22;;;2.90;;
19735;SDS011;32064;49.310;8.646;2022-08-25T06:46:23;3.05;;;2.72;;
19735;SDS011;32064;49.310;8.646;2022-08-25T06:48:51;3.15;;;2.67;;
19735;SDS011;32064;49.310;8.646;2022-08-25T06:51:19;3.63;;;2.92;;
19735;SDS011;32064;49.310;8.646;2022-08-25T06:53:46;5.45;;;2.80;;
19735;SDS011;32064;49.310;8.646;2022-08-25T06:56:13;3.42;;;2.88;;
19735;SDS011;32064;49.310;8.646;2022-08-25T06:58:40;3.25;;;2.55;;
19735;SDS011;32064;49.310;8.646;2022-08-25T07:01:13;4.47;;;2.50;;
19735;SDS011;32064;49.310;8.646;2022-08-25T07:03:47;2.60;;;2.40;;
19735;SDS011;32064;49.310;8.646;2022-08-25T07:06:16;4.82;;;2.40;;
19735;SDS011;32064;49.310;8.646;2022-08-25T07:08:45;3.10;;;2.67;;
19735;SDS011;32064;49.310;8.646;2022-08-25T07:11:12;4.20;;;2.70;;
19735;SDS011;32064;49.310;8.646;2022-08-25T07:13:42;2.72;;;2.50;;
19735;SDS011;32064;49.310;8.646;2022-08-25T07:16:08;7.03;;;2.55;;
19735;SDS011;32064;49.310;8.646;2022-08-25T07:18:35;3.03;;;2.72;;
19735;SDS011;32064;49.310;8.646;2022-08-25T07:21:00;3.10;;;2.33;;
19735;SDS011;32064;49.310;8.646;2022-08-25T07:23:26;3.53;;;2.60;;
19735;SDS011;32064;49.310;8.646;2022-08-25T07:25:53;3.40;;;2.78;;
19735;SDS011;32064;49.310;8.646;2022-08-25T07:28:19;2.78;;;2.50;;
19735;SDS011;32064;49.310;8.646;2022-08-25T07:30:46;8.90;;;2.97;;
19735;SDS011;32064;49.310;8.646;2022-08-25T07:33:12;2.80;;;2.50;;
19735;SDS011;32064;49.310;8.646;2022-08-25T07:35:37;2.45;;;2.25;;
19735;SDS011;32064;49.310;8.646;2022-08-25T07:38:04;2.60;;;2.40;;
19735;SDS011;32064;49.310;8.646;2022-08-25T07:40:32;3.47;;;2.42;;
19735;SDS011;32064;49.310;8.646;2022-08-25T07:43:01;2.95;;;2.72;;
19735;SDS011;32064;49.310;8.646;2022-08-25T07:45:29;3.53;;;2.75;;
19735;SDS011;32064;49.310;8.646;2022-08-25T07:50:27;2.70;;;2.38;;
19735;SDS011;32064;49.310;8.646;2022-08-25T07:52:54;3.25;;;2.55;;
19735;SDS011;32064;49.310;8.646;2022-08-25T07:55:21;3.25;;;2.85;;
19735;SDS011;32064;49.310;8.646;2022-08-25T07:57:51;2.58;;;2.38;;
19735;SDS011;32064;49.310;8.646;2022-08-25T08:00:17;3.70;;;2.55;;
19735;SDS011;32064;49.310;8.646;2022-08-25T08:02:43;2.47;;;2.22;;
19735;SDS011;32064;49.310;8.646;2022-08-25T08:05:10;2.50;;;2.20;;
19735;SDS011;32064;49.310;8.646;2022-08-25T08:07:36;5.72;;;2.80;;
19735;SDS011;32064;49.310;8.646;2022-08-25T08:10:01;2.70;;;2.38;;
19735;SDS011;32064;49.310;8.646;2022-08-25T08:12:28;3.25;;;2.33;;
19735;SDS011;32064;49.310;8.646;2022-08-25T08:14:54;4.63;;;2.60;;
19735;SDS011;32064;49.310;8.646;2022-08-25T08:17:20;2.90;;;2.33;;
19735;SDS011;32064;49.310;8.646;2022-08-25T08:19:45;3.10;;;2.35;;
19735;SDS011;32064;49.310;8.646;2022-08-25T08:22:12;4.10;;;2.38;;
19735;SDS011;32064;49.310;8.646;2022-08-25T08:24:41;2.72;;;2.28;;
19735;SDS011;32064;49.310;8.646;2022-08-25T08:27:08;3.45;;;2.33;;
19735;SDS011;32064;49.310;8.646;2022-08-25T08:29:36;5.90;;;2.55;;
19735;SDS011;32064;49.310;8.646;2022-08-25T08:32:07;2.72;;;2.20;;
19735;SDS011;32064;49.310;8.646;2022-08-25T08:34:34;4.82;;;3.20;;
19735;SDS011;32064;49.310;8.646;2022-08-25T08:36:59;4.50;;;2.40;;
19735;SDS011;32064;49.310;8.646;2022-08-25T08:39:27;6.22;;;2.88;;
19735;SDS011;32064;49.310;8.646;2022-08-25T08:52:49;3.08;;;2.38;;
19735;SDS011;32064;49.310;8.646;2022-08-25T08:55:27;3.42;;;1.98;;
19735;SDS011;32064;49.310;8.646;2022-08-25T08:57:58;3.13;;;2.20;;
19735;SDS011;32064;49.310;8.646;2022-08-25T09:00:25;4.28;;;2.30;;
19735;SDS011;32064;49.310;8.646;2022-08-25T09:02:55;4.10;;;2.17;;
19735;SDS011;32064;49.310;8.646;2022-08-25T09:05:28;3.40;;;2.13;;
19735;SDS011;32064;49.310;8.646;2022-08-25T09:08:00;4.10;;;2.10;;
19735;SDS011;32064;49.310;8.646;2022-08-25T09:13:10;2.45;;;2.25;;
19735;SDS011;32064;49.310;8.646;2022-08-25T09:15:59;4.10;;;2.30;;
19735;SDS011;32064;49.310;8.646;2022-08-25T09:30:18;2.30;;;2.10;;
19735;SDS011;32064;49.310;8.646;2022-08-25T09:32:49;3.80;;;2.10;;
19735;SDS011;32064;49.310;8.646;2022-08-25T09:35:24;2.95;;;2.00;;
19735;SDS011;32064;49.310;8.646;2022-08-25T09:37:59;2.38;;;2.17;;
19735;SDS011;32064;49.310;8.646;2022-08-25T09:40:27;4.43;;;1.70;;
19735;SDS011;32064;49.310;8.646;2022-08-25T09:42:57;1.92;;;1.70;;
19735;SDS011;32064;49.310;8.646;2022-08-25T09:45:47;2.10;;;1.90;;
19735;SDS011;32064;49.310;8.646;2022-08-25T09:48:23;3.53;;;2.30;;
19735;SDS011;32064;49.310;8.646;2022-08-25T09:50:50;2.50;;;1.65;;
19735;SDS011;32064;49.310;8.646;2022-08-25T09:53:19;2.08;;;1.88;;
19735;SDS011;32064;49.310;8.646;2022-08-25T09:55:46;4.15;;;1.67;;
19735;SDS011;32064;49.310;8.646;2022-08-25T09:58:22;1.73;;;1.38;;
19735;SDS011;32064;49.310;8.646;2022-08-25T10:03:34;2.08;;;1.88;;
19735;SDS011;32064;49.310;8.646;2022-08-25T10:06:02;1.77;;;1.67;;
19735;SDS011;32064;49.310;8.646;2022-08-25T10:11:05;2.28;;;1.60;;
19735;SDS011;32064;49.310;8.646;2022-08-25T10:13:43;1.98;;;1.75;;
19735;SDS011;32064;49.310;8.646;2022-08-25T10:16:12;3.63;;;1.60;;
19735;SDS011;32064;49.310;8.646;2022-08-25T10:19:04;1.90;;;1.60;;
19735;SDS011;32064;49.310;8.646;2022-08-25T10:21:39;3.28;;;1.75;;
19735;SDS011;32064;49.310;8.646;2022-08-25T10:24:07;2.53;;;1.55;;
19735;SDS011;32064;49.310;8.646;2022-08-25T10:26:43;3.20;;;1.80;;
19735;SDS011;32064;49.310;8.646;2022-08-25T10:32:16;1.70;;;1.60;;
19735;SDS011;32064;49.310;8.646;2022-08-25T10:34:49;2.30;;;1.92;;
19735;SDS011;32064;49.310;8.646;2022-08-25T10:40:35;2.08;;;1.73;;
19735;SDS011;32064;49.310;8.646;2022-08-25T10:42:59;2.92;;;1.70;;
19735;SDS011;32064;49.310;8.646;2022-08-25T10:45:56;12.45;;;2.60;;
19735;SDS011;32064;49.310;8.646;2022-08-25T10:48:57;4.40;;;2.13;;
19735;SDS011;32064;49.310;8.646;2022-08-25T10:51:31;1.40;;;1.30;;
19735;SDS011;32064;49.310;8.646;2022-08-25T10:59:50;1.90;;;1.65;;
19735;SDS011;32064;49.310;8.646;2022-08-25T11:05:13;3.85;;;1.73;;
19735;SDS011;32064;49.310;8.646;2022-08-25T11:07:50;2.95;;;1.55;;
19735;SDS011;32064;49.310;8.646;2022-08-25T11:10:38;2.33;;;1.90;;
19735;SDS011;32064;49.310;8.646;2022-08-25T11:13:10;2.22;;;1.65;;
19735;SDS011;32064;49.310;8.646;2022-08-25T11:15:46;1.73;;;1.63;;
19735;SDS011;32064;49.310;8.646;2022-08-25T11:18:18;1.70;;;1.60;;
19735;SDS011;32064;49.310;8.646;2022-08-25T11:20:52;1.90;;;1.45;;
19735;SDS011;32064;49.310;8.646;2022-08-25T11:23:34;1.65;;;1.55;;
19735;SDS011;32064;49.310;8.646;2022-08-25T11:26:02;2.17;;;1.60;;
19735;SDS011;32064;49.310;8.646;2022-08-25T11:29:21;3.03;;;1.65;;
19735;SDS011;32064;49.310;8.646;2022-08-25T11:31:27;2.17;;;1.65;;
19735;SDS011;32064;49.310;8.646;2022-08-25T11:33:53;4.38;;;1.70;;
19735;SDS011;32064;49.310;8.646;2022-08-25T11:36:30;2.47;;;1.85;;
19735;SDS011;32064;49.310;8.646;2022-08-25T11:44:49;2.78;;;1.70;;
19735;SDS011;32064;49.310;8.646;2022-08-25T11:52:55;6.15;;;1.92;;
19735;SDS011;32064;49.310;8.646;2022-08-25T12:04:14;5.10;;;1.85;;
19735;SDS011;32064;49.310;8.646;2022-08-25T12:09:30;1.90;;;1.70;;
19735;SDS011;32064;49.310;8.646;2022-08-25T12:12:29;2.00;;;1.80;;
19735;SDS011;32064;49.310;8.646;2022-08-25T12:14:55;4.40;;;1.80;;
19735;SDS011;32064;49.310;8.646;2022-08-25T12:18:06;2.13;;;1.80;;
19735;SDS011;32064;49.310;8.646;2022-08-25T12:25:53;1.75;;;1.65;;
19735;SDS011;32064;49.310;8.646;2022-08-25T12:28:26;2.15;;;1.90;;
19735;SDS011;32064;49.310;8.646;2022-08-25T12:31:03;6.93;;;2.17;;
19735;SDS011;32064;49.310;8.646;2022-08-25T12:36:33;3.05;;;1.90;;
19735;SDS011;32064;49.310;8.646;2022-08-25T12:39:13;7.50;;;1.70;;
19735;SDS011;32064;49.310;8.646;2022-08-25T12:41:53;4.68;;;1.70;;
19735;SDS011;32064;49.310;8.646;2022-08-25T12:49:44;3.22;;;1.80;;
19735;SDS011;32064;49.310;8.646;2022-08-25T12:52:17;10.05;;;2.00;;
19735;SDS011;32064;49.310;8.646;2022-08-25T12:54:46;1.83;;;1.58;;
19735;SDS011;32064;49.310;8.646;2022-08-25T12:59:49;2.63;;;1.92;;
19735;SDS011;32064;49.310;8.646;2022-08-25T13:11:10;2.05;;;1.75;;
19735;SDS011;32064;49.310;8.646;2022-08-25T13:14:05;3.83;;;1.60;;
19735;SDS011;32064;49.310;8.646;2022-08-25T13:16:53;2.25;;;1.63;;
19735;SDS011;32064;49.310;8.646;2022-08-25T13:19:21;2.67;;;1.67;;
19735;SDS011;32064;49.310;8.646;2022-08-25T13:21:48;5.68;;;1.67;;
19735;SDS011;32064;49.310;8.646;2022-08-25T13:24:20;2.22;;;1.65;;
19735;SDS011;32064;49.310;8.646;2022-08-25T13:26:53;2.65;;;1.83;;
19735;SDS011;32064;49.310;8.646;2022-08-25T13:29:22;1.67;;;1.50;;
19735;SDS011;32064;49.310;8.646;2022-08-25T13:31:55;2.05;;;1.80;;
19735;SDS011;32064;49.310;8.646;2022-08-25T13:34:23;2.33;;;1.77;;
19735;SDS011;32064;49.310;8.646;2022-08-25T13:36:54;1.83;;;1.42;;
19735;SDS011;32064;49.310;8.646;2022-08-25T13:39:47;1.60;;;1.38;;
19735;SDS011;32064;49.310;8.646;2022-08-25T13:42:14;1.65;;;1.55;;
19735;SDS011;32064;49.310;8.646;2022-08-25T13:44:41;4.90;;;1.50;;
19735;SDS011;32064;49.310;8.646;2022-08-25T13:47:09;3.20;;;1.63;;
19735;SDS011;32064;49.310;8.646;2022-08-25T13:49:41;1.50;;;1.33;;
19735;SDS011;32064;49.310;8.646;2022-08-25T13:52:18;1.70;;;1.50;;
19735;SDS011;32064;49.310;8.646;2022-08-25T13:54:50;1.75;;;1.45;;
19735;SDS011;32064;49.310;8.646;2022-08-25T13:57:18;3.85;;;1.88;;
19735;SDS011;32064;49.310;8.646;2022-08-25T13:59:48;2.78;;;1.85;;
19735;SDS011;32064;49.310;8.646;2022-08-25T14:02:39;4.40;;;1.67;;
19735;SDS011;32064;49.310;8.646;2022-08-25T14:05:14;2.28;;;1.50;;
19735;SDS011;32064;49.310;8.646;2022-08-25T14:07:51;2.30;;;1.50;;
19735;SDS011;32064;49.310;8.646;2022-08-25T14:10:36;2.10;;;1.88;;
19735;SDS011;32064;49.310;8.646;2022-08-25T14:16:05;3.63;;;1.70;;
19735;SDS011;32064;49.310;8.646;2022-08-25T14:18:33;1.88;;;1.58;;
19735;SDS011;32064;49.310;8.646;2022-08-25T14:20:59;1.60;;;1.50;;
19735;SDS011;32064;49.310;8.646;2022-08-25T14:23:30;4.38;;;1.38;;
19735;SDS011;32064;49.310;8.646;2022-08-25T14:25:56;4.03;;;1.60;;
19735;SDS011;32064;49.310;8.646;2022-08-25T14:28:23;3.00;;;1.50;;
19735;SDS011;32064;49.310;8.646;2022-08-25T14:33:29;1.98;;;1.48;;
19735;SDS011;32064;49.310;8.646;2022-08-25T14:36:04;2.40;;;1.67;;
19735;SDS011;32064;49.310;8.646;2022-08-25T14:38:34;3.05;;;1.55;;
19735;SDS011;32064;49.310;8.646;2022-08-25T14:41:02;2.45;;;1.42;;
19735;SDS011;32064;49.310;8.646;2022-08-25T14:43:28;5.32;;;1.50;;
19735;SDS011;32064;49.310;8.646;2022-08-25T14:45:53;3.03;;;1.38;;
19735;SDS011;32064;49.310;8.646;2022-08-25T14:48:22;1.23;;;1.13;;
19735;SDS011;32064;49.310;8.646;2022-08-25T14:50:53;4.85;;;1.52;;
19735;SDS011;32064;49.310;8.646;2022-08-25T14:53:22;6.03;;;1.73;;
19735;SDS011;32064;49.310;8.646;2022-08-25T14:55:48;2.88;;;1.42;;
19735;SDS011;32064;49.310;8.646;2022-08-25T14:58:18;1.35;;;1.20;;
19735;SDS011;32064;49.310;8.646;2022-08-25T15:00:44;1.63;;;1.48;;
19735;SDS011;32064;49.310;8.646;2022-08-25T15:03:15;2.80;;;1.90;;
19735;SDS011;32064;49.310;8.646;2022-08-25T15:05:45;2.85;;;1.67;;
19735;SDS011;32064;49.310;8.646;2022-08-25T15:08:11;1.95;;;1.60;;
19735;SDS011;32064;49.310;8.646;2022-08-25T15:10:55;1.55;;;1.40;;
19735;SDS011;32064;49.310;8.646;2022-08-25T15:13:21;1.42;;;1.33;;
19735;SDS011;32064;49.310;8.646;2022-08-25T15:15:47;1.67;;;1.42;;
19735;SDS011;32064;49.310;8.646;2022-08-25T15:18:13;2.22;;;1.60;;
19735;SDS011;32064;49.310;8.646;2022-08-25T15:20:41;2.22;;;1.55;;
19735;SDS011;32064;49.310;8.646;2022-08-25T15:23:06;2.65;;;1.60;;
19735;SDS011;32064;49.310;8.646;2022-08-25T15:25:33;4.25;;;1.80;;
19735;SDS011;32064;49.310;8.646;2022-08-25T15:27:58;2.47;;;1.60;;
19735;SDS011;32064;49.310;8.646;2022-08-25T15:30:30;1.52;;;1.38;;
19735;SDS011;32064;49.310;8.646;2022-08-25T15:32:56;5.57;;;1.60;;
19735;SDS011;32064;49.310;8.646;2022-08-25T15:35:22;2.72;;;1.50;;
19735;SDS011;32064;49.310;8.646;2022-08-25T15:37:47;1.88;;;1.35;;
19735;SDS011;32064;49.310;8.646;2022-08-25T15:40:13;1.92;;;1.50;;
19735;SDS011;32064;49.310;8.646;2022-08-25T15:42:38;1.85;;;1.20;;
19735;SDS011;32064;49.310;8.646;2022-08-25T15:45:04;2.55;;;1.67;;
19735;SDS011;32064;49.310;8.646;2022-08-25T15:47:31;1.20;;;1.10;;
19735;SDS011;32064;49.310;8.646;2022-08-25T15:50:07;3.20;;;1.70;;
19735;SDS011;32064;49.310;8.646;2022-08-25T15:52:35;2.17;;;1.50;;
19735;SDS011;32064;49.310;8.646;2022-08-25T15:55:02;1.52;;;1.40;;
19735;SDS011;32064;49.310;8.646;2022-08-25T15:57:28;2.35;;;1.50;;
19735;SDS011;32064;49.310;8.646;2022-08-25T15:59:53;1.92;;;1.40;;
19735;SDS011;32064;49.310;8.646;2022-08-25T16:02:19;5.72;;;2.08;;
19735;SDS011;32064;49.310;8.646;2022-08-25T16:04:45;2.83;;;1.30;;
19735;SDS011;32064;49.310;8.646;2022-08-25T16:07:11;4.55;;;1.50;;
19735;SDS011;32064;49.310;8.646;2022-08-25T16:09:36;2.67;;;1.70;;
19735;SDS011;32064;49.310;8.646;2022-08-25T16:12:02;1.30;;;1.20;;
19735;SDS011;32064;49.310;8.646;2022-08-25T16:14:27;1.73;;;1.30;;
19735;SDS011;32064;49.310;8.646;2022-08-25T16:16:53;3.88;;;1.80;;
19735;SDS011;32064;49.310;8.646;2022-08-25T16:19:19;1.65;;;1.48;;
19735;SDS011;32064;49.310;8.646;2022-08-25T16:21:44;2.85;;;1.60;;
19735;SDS011;32064;49.310;8.646;2022-08-25T16:24:10;7.85;;;1.58;;
19735;SDS011;32064;49.310;8.646;2022-08-25T16:26:35;5.50;;;1.50;;
19735;SDS011;32064;49.310;8.646;2022-08-25T16:29:06;2.47;;;1.40;;
19735;SDS011;32064;49.310;8.646;2022-08-25T16:31:36;1.98;;;1.30;;
19735;SDS011;32064;49.310;8.646;2022-08-25T16:34:02;1.90;;;1.33;;
19735;SDS011;32064;49.310;8.646;2022-08-25T16:36:28;2.30;;;1.45;;
19735;SDS011;32064;49.310;8.646;2022-08-25T16:38:54;1.45;;;1.17;;
19735;SDS011;32064;49.310;8.646;2022-08-25T16:41:22;1.55;;;1.17;;
19735;SDS011;32064;49.310;8.646;2022-08-25T16:43:49;1.63;;;1.17;;
19735;SDS011;32064;49.310;8.646;2022-08-25T16:46:16;1.55;;;1.27;;